createdAt,value
2022-08-18T00:00:48.631Z,19.49
2022-08-18T00:01:48.871Z,19.47
2022-08-18T00:03:00.962Z,19.64
2022-08-18T00:03:55.672Z,19.64
2022-08-18T00:04:49.951Z,19.79
2022-08-18T00:05:48.582Z,19.80
2022-08-18T00:06:49.603Z,19.95
2022-08-18T00:07:48.604Z,19.92
2022-08-18T00:08:48.585Z,19.85
2022-08-18T00:09:48.637Z,19.82
2022-08-18T00:10:48.599Z,19.98
2022-08-18T00:11:48.528Z,19.94
2022-08-18T00:12:48.580Z,19.90
2022-08-18T00:13:48.566Z,19.94
2022-08-18T00:14:48.565Z,19.95
2022-08-18T00:15:49.289Z,19.85
2022-08-18T00:16:48.540Z,19.61
2022-08-18T00:17:48.508Z,19.31
2022-08-18T00:18:48.536Z,18.99
2022-08-18T00:19:48.591Z,18.78
2022-08-18T00:20:48.488Z,18.82
2022-08-18T00:21:48.484Z,18.83
2022-08-18T00:22:48.498Z,19.01
2022-08-18T00:23:48.489Z,19.17
2022-08-18T00:24:49.332Z,19.27
2022-08-18T00:25:48.460Z,19.43
2022-08-18T00:26:48.754Z,19.52
2022-08-18T00:27:48.465Z,19.60
2022-08-18T00:28:48.455Z,19.71
2022-08-18T00:29:48.475Z,19.76
2022-08-18T00:30:48.422Z,19.82
2022-08-18T00:31:49.442Z,19.85
2022-08-18T00:32:48.438Z,19.85
2022-08-18T00:33:48.420Z,19.87
2022-08-18T00:34:48.516Z,19.79
2022-08-18T00:35:48.452Z,19.83
2022-08-18T00:36:48.413Z,19.85
2022-08-18T00:37:48.495Z,19.68
2022-08-18T00:38:48.401Z,19.65
2022-08-18T00:39:48.507Z,19.65
2022-08-18T00:40:48.422Z,19.52
2022-08-18T00:41:48.391Z,19.43
2022-08-18T00:42:48.393Z,19.34
2022-08-18T00:43:48.371Z,19.38
2022-08-18T00:44:48.349Z,19.27
2022-08-18T00:45:48.332Z,19.40
2022-08-18T00:46:48.381Z,19.39
2022-08-18T00:47:48.375Z,19.62
2022-08-18T00:48:49.376Z,19.57
2022-08-18T00:49:48.316Z,19.57
2022-08-18T00:50:48.325Z,19.58
2022-08-18T00:51:48.333Z,19.25
2022-08-18T00:52:48.338Z,18.82
2022-08-18T00:53:48.305Z,18.68
2022-08-18T00:54:48.303Z,18.56
2022-08-18T00:55:53.903Z,18.38
2022-08-18T00:56:49.376Z,18.19
2022-08-18T00:57:48.297Z,17.99
2022-08-18T00:58:48.302Z,18.09
2022-08-18T00:59:48.316Z,18.11
2022-08-18T01:00:48.288Z,18.32
2022-08-18T01:01:48.267Z,18.46
2022-08-18T01:02:48.329Z,18.60
2022-08-18T01:03:48.239Z,18.66
2022-08-18T01:04:48.240Z,18.79
2022-08-18T01:05:48.222Z,18.53
2022-08-18T01:06:48.214Z,18.57
2022-08-18T01:07:48.299Z,18.75
2022-08-18T01:08:48.224Z,18.66
2022-08-18T01:09:48.243Z,18.83
2022-08-18T01:10:48.234Z,19.05
2022-08-18T01:11:48.187Z,19.15
2022-08-18T01:12:48.198Z,19.24
2022-08-18T01:13:48.212Z,19.35
2022-08-18T01:14:48.164Z,19.34
2022-08-18T01:15:48.177Z,19.43
2022-08-18T01:16:56.707Z,19.47
2022-08-18T01:17:49.145Z,19.55
2022-08-18T01:18:48.158Z,19.58
2022-08-18T01:19:48.137Z,19.62
2022-08-18T01:20:48.115Z,19.65
2022-08-18T01:21:48.137Z,19.57
2022-08-18T01:22:48.118Z,19.64
2022-08-18T01:23:48.173Z,19.64
2022-08-18T01:24:48.142Z,19.67
2022-08-18T01:25:48.136Z,19.67
2022-08-18T01:26:48.113Z,19.75
2022-08-18T01:27:48.095Z,19.79
2022-08-18T01:28:48.150Z,19.34
2022-08-18T01:29:48.105Z,19.28
2022-08-18T01:30:48.059Z,19.28
2022-08-18T01:31:53.245Z,19.16
2022-08-18T01:32:49.063Z,19.25
2022-08-18T01:33:48.034Z,19.24
2022-08-18T01:34:48.043Z,19.17
2022-08-18T01:35:48.039Z,19.24
2022-08-18T01:36:48.059Z,19.27
2022-08-18T01:37:48.102Z,19.27
2022-08-18T01:38:48.009Z,19.17
2022-08-18T01:41:21.074Z,18.89
2022-08-18T01:41:22.150Z,18.62
2022-08-18T01:41:49.026Z,18.25
2022-08-18T01:42:48.007Z,18.04
2022-08-18T01:43:48.024Z,17.92
2022-08-18T01:44:48.000Z,17.87
2022-08-18T01:45:47.985Z,17.83
2022-08-18T01:46:47.973Z,17.54
2022-08-18T01:47:48.770Z,17.35
2022-08-18T01:48:47.981Z,17.30
2022-08-18T01:49:48.008Z,17.17
2022-08-18T01:50:47.949Z,17.02
2022-08-18T01:51:48.935Z,17.18
2022-08-18T01:52:47.988Z,17.42
2022-08-18T01:53:47.939Z,17.45
2022-08-18T01:54:47.915Z,17.55
2022-08-18T01:55:47.895Z,17.65
2022-08-18T01:56:47.922Z,17.70
2022-08-18T01:57:48.021Z,17.79
2022-08-18T01:58:47.910Z,17.81
2022-08-18T01:59:47.961Z,18.01
2022-08-18T02:00:47.878Z,18.02
2022-08-18T02:01:50.513Z,18.10
2022-08-18T02:02:55.386Z,18.34
2022-08-18T02:03:48.882Z,18.46
2022-08-18T02:04:47.819Z,18.65
2022-08-18T02:05:47.856Z,18.76
2022-08-18T02:06:48.089Z,18.87
2022-08-18T02:07:47.995Z,18.94
2022-08-18T02:08:53.423Z,18.91
2022-08-18T02:09:50.064Z,19.12
2022-08-18T02:10:47.779Z,19.10
2022-08-18T02:11:47.825Z,19.13
2022-08-18T02:12:47.819Z,19.15
2022-08-18T02:13:47.781Z,19.23
2022-08-18T02:14:47.834Z,19.24
2022-08-18T02:15:47.755Z,19.25
2022-08-18T02:16:47.774Z,19.31
2022-08-18T02:17:47.816Z,19.20
2022-08-18T02:18:48.926Z,19.01
2022-08-18T02:19:47.771Z,18.50
2022-08-18T02:20:47.774Z,18.04
2022-08-18T02:21:47.729Z,17.96
2022-08-18T02:22:47.747Z,17.91
2022-08-18T02:23:53.906Z,17.95
2022-08-18T02:24:48.690Z,18.16
2022-08-18T02:25:47.755Z,17.99
2022-08-18T02:26:47.704Z,17.96
2022-08-18T02:27:47.755Z,18.13
2022-08-18T02:28:47.694Z,18.26
2022-08-18T02:29:47.697Z,18.38
2022-08-18T02:30:47.709Z,18.42
2022-08-18T02:31:47.661Z,18.28
2022-08-18T02:32:47.674Z,18.13
2022-08-18T02:33:52.534Z,17.98
2022-08-18T02:34:49.730Z,17.84
2022-08-18T02:35:47.709Z,17.87
2022-08-18T02:36:47.686Z,17.87
2022-08-18T02:37:47.673Z,17.89
2022-08-18T02:38:56.779Z,18.02
2022-08-18T02:39:48.699Z,18.09
2022-08-18T02:40:47.659Z,18.25
2022-08-18T02:41:47.630Z,18.34
2022-08-18T02:42:47.665Z,18.53
2022-08-18T02:43:47.618Z,18.65
2022-08-18T02:44:47.627Z,18.69
2022-08-18T02:45:47.624Z,18.75
2022-08-18T02:46:47.594Z,18.64
2022-08-18T02:47:47.650Z,18.56
2022-08-18T02:48:47.601Z,18.65
2022-08-18T02:49:47.544Z,18.60
2022-08-18T02:50:47.747Z,18.72
2022-08-18T02:51:47.566Z,18.76
2022-08-18T02:52:47.565Z,18.83
2022-08-18T02:53:47.576Z,18.89
2022-08-18T02:54:47.619Z,19.05
2022-08-18T02:55:47.523Z,19.09
2022-08-18T02:56:47.507Z,19.07
2022-08-18T02:57:47.714Z,18.99
2022-08-18T02:58:47.573Z,18.86
2022-08-18T02:59:48.347Z,18.69
2022-08-18T03:00:47.532Z,18.44
2022-08-18T03:01:47.561Z,18.31
2022-08-18T03:02:47.543Z,18.31
2022-08-18T03:03:47.550Z,18.23
2022-08-18T03:04:47.473Z,18.13
2022-08-18T03:05:47.488Z,18.05
2022-08-18T03:06:47.459Z,17.91
2022-08-18T03:07:47.498Z,17.98
2022-08-18T03:08:47.445Z,17.89
2022-08-18T03:09:47.449Z,17.81
2022-08-18T03:10:47.525Z,17.84
2022-08-18T03:11:47.424Z,17.81
2022-08-18T03:12:47.437Z,17.89
2022-08-18T03:13:47.587Z,17.86
2022-08-18T03:14:47.443Z,17.53
2022-08-18T03:15:47.385Z,17.57
2022-08-18T03:16:52.864Z,17.47
2022-08-18T03:17:48.418Z,17.54
2022-08-18T03:18:47.396Z,17.58
2022-08-18T03:19:47.903Z,17.36
2022-08-18T03:20:47.449Z,17.51
2022-08-18T03:21:47.386Z,17.55
2022-08-18T03:22:47.547Z,17.79
2022-08-18T03:24:00.654Z,17.81
2022-08-18T03:24:48.350Z,17.94
2022-08-18T03:25:47.436Z,18.07
2022-08-18T03:26:47.363Z,18.28
2022-08-18T03:27:47.408Z,18.39
2022-08-18T03:28:47.369Z,18.57
2022-08-18T03:29:47.410Z,18.69
2022-08-18T03:30:47.306Z,18.86
2022-08-18T03:31:47.323Z,18.82
2022-08-18T03:32:47.345Z,18.91
2022-08-18T03:33:47.283Z,18.86
2022-08-18T03:34:47.358Z,18.83
2022-08-18T03:35:47.345Z,18.76
2022-08-18T03:36:47.322Z,18.65
2022-08-18T03:37:47.309Z,18.50
2022-08-18T03:38:47.414Z,18.54
2022-08-18T03:39:48.342Z,18.51
2022-08-18T03:40:47.248Z,18.59
2022-08-18T03:42:00.070Z,18.60
2022-08-18T03:42:48.232Z,18.78
2022-08-18T03:43:50.661Z,18.76
2022-08-18T03:44:47.247Z,18.75
2022-08-18T03:45:47.256Z,18.75
2022-08-18T03:46:47.241Z,18.83
2022-08-18T03:47:47.195Z,18.84
2022-08-18T03:48:47.203Z,18.76
2022-08-18T03:49:47.185Z,18.75
2022-08-18T03:50:47.198Z,18.62
2022-08-18T03:51:47.173Z,18.60
2022-08-18T03:52:47.305Z,18.64
2022-08-18T03:53:47.181Z,18.72
2022-08-18T03:54:47.163Z,18.76
2022-08-18T03:55:47.153Z,18.74
2022-08-18T03:56:47.145Z,18.89
2022-08-18T03:57:47.204Z,18.83
2022-08-18T03:58:47.206Z,18.72
2022-08-18T03:59:47.132Z,18.32
2022-08-18T04:00:47.154Z,18.01
2022-08-18T04:01:47.210Z,17.76
2022-08-18T04:02:47.127Z,17.80
2022-08-18T04:03:47.124Z,17.94
2022-08-18T04:04:47.106Z,17.96
2022-08-18T04:05:47.081Z,18.09
2022-08-18T04:06:47.112Z,18.17
2022-08-18T04:07:47.168Z,18.32
2022-08-18T04:08:47.101Z,18.35
2022-08-18T04:09:47.062Z,18.35
2022-08-18T04:10:47.078Z,18.51
2022-08-18T04:11:47.050Z,18.54
2022-08-18T04:12:47.182Z,18.64
2022-08-18T04:13:47.061Z,18.72
2022-08-18T04:14:47.073Z,18.57
2022-08-18T04:15:47.031Z,18.65
2022-08-18T04:16:47.012Z,18.62
2022-08-18T04:18:03.442Z,18.66
2022-08-18T04:18:48.018Z,18.66
2022-08-18T04:19:47.007Z,18.68
2022-08-18T04:20:59.038Z,18.56
2022-08-18T04:21:47.966Z,18.62
2022-08-18T04:22:47.032Z,18.35
2022-08-18T04:23:46.991Z,18.28
2022-08-18T04:24:46.980Z,18.11
2022-08-18T04:25:46.945Z,18.01
2022-08-18T04:26:46.965Z,17.98
2022-08-18T04:27:47.000Z,17.91
2022-08-18T04:28:46.997Z,17.95
2022-08-18T04:29:46.965Z,18.10
2022-08-18T04:30:46.943Z,18.25
2022-08-18T04:31:46.966Z,18.28
2022-08-18T04:32:46.932Z,18.39
2022-08-18T04:33:46.948Z,18.53
2022-08-18T04:34:46.900Z,18.64
2022-08-18T04:35:46.896Z,18.74
2022-08-18T04:36:46.939Z,18.75
2022-08-18T04:37:46.869Z,18.79
2022-08-18T04:38:46.892Z,18.84
2022-08-18T04:39:46.956Z,18.89
2022-08-18T04:40:46.892Z,18.91
2022-08-18T04:41:46.890Z,18.93
2022-08-18T04:42:46.857Z,19.09
2022-08-18T04:43:46.844Z,19.16
2022-08-18T04:44:46.884Z,19.09
2022-08-18T04:45:46.842Z,19.16
2022-08-18T04:46:46.818Z,19.15
2022-08-18T04:47:46.853Z,19.13
2022-08-18T04:48:46.801Z,19.15
2022-08-18T04:49:46.821Z,19.20
2022-08-18T04:50:46.806Z,19.10
2022-08-18T04:52:36.333Z,19.28
2022-08-18T04:52:47.794Z,19.24
2022-08-18T04:53:46.827Z,19.28
2022-08-18T04:54:46.820Z,19.21
2022-08-18T04:55:46.775Z,19.27
2022-08-18T04:56:46.782Z,19.30
2022-08-18T04:57:46.842Z,19.34
2022-08-18T04:58:46.758Z,19.28
2022-08-18T04:59:46.871Z,19.25
2022-08-18T05:00:46.817Z,19.38
2022-08-18T05:01:46.807Z,19.24
2022-08-18T05:02:46.801Z,19.28
2022-08-18T05:03:50.516Z,19.17
2022-08-18T05:04:46.737Z,19.24
2022-08-18T05:05:46.780Z,19.12
2022-08-18T05:06:46.704Z,19.15
2022-08-18T05:07:46.744Z,19.15
2022-08-18T05:08:46.707Z,18.87
2022-08-18T05:09:46.677Z,18.44
2022-08-18T05:10:46.705Z,18.31
2022-08-18T05:11:46.721Z,18.26
2022-08-18T05:12:46.658Z,18.04
2022-08-18T05:13:46.661Z,18.10
2022-08-18T05:14:46.647Z,17.86
2022-08-18T05:16:08.916Z,17.76
2022-08-18T05:16:49.689Z,17.71
2022-08-18T05:17:50.333Z,17.54
2022-08-18T05:18:46.624Z,17.49
2022-08-18T05:19:46.649Z,17.40
2022-08-18T05:20:46.647Z,17.38
2022-08-18T05:21:50.650Z,17.25
2022-08-18T05:22:46.654Z,17.32
2022-08-18T05:23:46.618Z,17.30
2022-08-18T05:24:46.624Z,17.40
2022-08-18T05:25:46.575Z,17.53
2022-08-18T05:26:46.656Z,17.62
2022-08-18T05:27:46.690Z,17.89
2022-08-18T05:28:46.573Z,17.96
2022-08-18T05:29:46.566Z,17.94
2022-08-18T05:30:46.549Z,18.09
2022-08-18T05:31:46.547Z,18.20
2022-08-18T05:32:49.158Z,18.34
2022-08-18T05:33:46.573Z,18.42
2022-08-18T05:34:46.596Z,18.62
2022-08-18T05:35:46.584Z,18.79
2022-08-18T05:36:46.542Z,18.79
2022-08-18T05:37:46.550Z,18.91
2022-08-18T05:38:46.509Z,18.99
2022-08-18T05:39:46.592Z,19.13
2022-08-18T05:40:46.917Z,19.15
2022-08-18T05:41:46.519Z,19.24
2022-08-18T05:42:46.481Z,19.31
2022-08-18T05:43:51.812Z,19.42
2022-08-18T05:44:48.507Z,19.38
2022-08-18T05:45:46.554Z,19.53
2022-08-18T05:46:46.459Z,19.61
2022-08-18T05:47:46.598Z,19.58
2022-08-18T05:48:46.485Z,19.64
2022-08-18T05:49:46.510Z,19.67
2022-08-18T05:50:46.438Z,19.78
2022-08-18T05:51:46.416Z,19.83
2022-08-18T05:52:46.417Z,19.97
2022-08-18T05:53:46.574Z,20.04
2022-08-18T05:54:46.461Z,20.08
2022-08-18T05:55:48.104Z,20.26
2022-08-18T05:56:47.756Z,20.27
2022-08-18T05:57:46.467Z,20.22
2022-08-18T05:58:46.399Z,20.27
2022-08-18T05:59:48.020Z,20.31
2022-08-18T06:00:46.441Z,20.22
2022-08-18T06:01:46.419Z,20.23
2022-08-18T06:02:46.532Z,20.27
2022-08-18T06:03:46.990Z,20.31
2022-08-18T06:04:46.350Z,20.34
2022-08-18T06:05:46.419Z,20.42
2022-08-18T06:06:47.823Z,20.42
2022-08-18T06:07:47.398Z,20.50
2022-08-18T06:08:46.313Z,20.35
2022-08-18T06:09:46.545Z,20.35
2022-08-18T06:10:46.328Z,20.34
2022-08-18T06:11:46.349Z,20.20
2022-08-18T06:12:47.349Z,19.92
2022-08-18T06:13:47.289Z,20.05
2022-08-18T06:14:46.330Z,20.07
2022-08-18T06:15:46.340Z,20.12
2022-08-18T06:16:46.349Z,19.97
2022-08-18T06:17:46.636Z,20.01
2022-08-18T06:18:46.262Z,20.02
2022-08-18T06:19:46.303Z,20.17
2022-08-18T06:20:46.242Z,20.23
2022-08-18T06:21:46.292Z,20.26
2022-08-18T06:22:52.185Z,20.35
2022-08-18T06:23:47.248Z,20.37
2022-08-18T06:24:46.223Z,20.50
2022-08-18T06:25:46.257Z,20.56
2022-08-18T06:26:46.262Z,20.57
2022-08-18T06:27:46.283Z,20.58
2022-08-18T06:28:46.256Z,20.42
2022-08-18T06:29:46.213Z,20.40
2022-08-18T06:30:46.201Z,20.16
2022-08-18T06:31:46.220Z,20.16
2022-08-18T06:32:46.187Z,20.08
2022-08-18T06:33:46.192Z,20.00
2022-08-18T06:34:46.169Z,19.94
2022-08-18T06:35:46.152Z,19.90
2022-08-18T06:36:46.211Z,20.01
2022-08-18T06:37:46.197Z,20.04
2022-08-18T06:38:46.193Z,20.07
2022-08-18T06:39:46.177Z,20.17
2022-08-18T06:40:46.296Z,20.20
2022-08-18T06:41:46.145Z,20.16
2022-08-18T06:42:46.089Z,20.26
2022-08-18T06:43:46.123Z,20.10
2022-08-18T06:44:46.150Z,20.20
2022-08-18T06:45:46.132Z,20.30
2022-08-18T06:46:46.097Z,20.15
2022-08-18T06:47:46.166Z,20.01
2022-08-18T06:48:46.116Z,19.92
2022-08-18T06:49:46.088Z,19.87
2022-08-18T06:50:46.039Z,19.82
2022-08-18T06:51:46.094Z,19.65
2022-08-18T06:52:46.057Z,19.64
2022-08-18T06:53:46.064Z,19.60
2022-08-18T06:54:47.787Z,19.78
2022-08-18T06:55:47.073Z,19.82
2022-08-18T06:56:46.070Z,19.90
2022-08-18T06:57:46.084Z,20.05
2022-08-18T06:58:50.036Z,20.12
2022-08-18T06:59:47.021Z,20.25
2022-08-18T07:00:46.094Z,20.30
2022-08-18T07:01:47.047Z,20.40
2022-08-18T07:02:46.004Z,20.41
2022-08-18T07:03:46.018Z,20.48
2022-08-18T07:04:45.974Z,20.57
2022-08-18T07:05:46.023Z,20.66
2022-08-18T07:06:45.959Z,20.68
2022-08-18T07:07:46.038Z,20.66
2022-08-18T07:08:45.993Z,20.76
2022-08-18T07:09:45.947Z,20.82
2022-08-18T07:10:45.951Z,20.93
2022-08-18T07:11:45.981Z,21.09
2022-08-18T07:12:45.928Z,21.11
2022-08-18T07:13:45.931Z,21.13
2022-08-18T07:14:45.933Z,21.19
2022-08-18T07:15:45.959Z,21.48
2022-08-18T07:17:01.035Z,21.45
2022-08-18T07:17:47.898Z,21.52
2022-08-18T07:18:45.947Z,21.48
2022-08-18T07:19:45.908Z,21.51
2022-08-18T07:20:45.898Z,21.45
2022-08-18T07:21:45.922Z,21.46
2022-08-18T07:22:45.869Z,21.49
2022-08-18T07:23:57.596Z,21.46
2022-08-18T07:24:47.838Z,21.53
2022-08-18T07:25:45.878Z,21.58
2022-08-18T07:26:45.836Z,21.61
2022-08-18T07:27:45.868Z,21.53
2022-08-18T07:28:45.863Z,21.49
2022-08-18T07:29:45.820Z,21.46
2022-08-18T07:31:00.439Z,21.56
2022-08-18T07:31:47.898Z,21.70
2022-08-18T07:32:45.842Z,21.66
2022-08-18T07:33:45.812Z,21.70
2022-08-18T07:34:47.917Z,21.83
2022-08-18T07:35:45.801Z,21.73
2022-08-18T07:36:45.774Z,21.75
2022-08-18T07:37:45.801Z,21.71
2022-08-18T07:38:45.779Z,21.61
2022-08-18T07:39:48.455Z,21.70
2022-08-18T07:40:45.762Z,21.81
2022-08-18T07:41:45.830Z,21.71
2022-08-18T07:43:00.597Z,21.85
2022-08-18T07:43:46.730Z,21.83
2022-08-18T07:44:45.732Z,21.79
2022-08-18T07:45:45.726Z,21.81
2022-08-18T07:46:45.736Z,21.82
2022-08-18T07:47:45.801Z,21.85
2022-08-18T07:48:45.702Z,21.90
2022-08-18T07:50:13.420Z,21.89
2022-08-18T07:50:58.712Z,21.83
2022-08-18T07:51:47.691Z,21.81
2022-08-18T07:52:47.359Z,21.75
2022-08-18T07:53:56.373Z,21.58
2022-08-18T07:54:49.840Z,21.51
2022-08-18T07:55:46.655Z,21.45
2022-08-18T07:56:45.659Z,21.67
2022-08-18T07:57:45.706Z,21.68
2022-08-18T07:58:45.610Z,21.82
2022-08-18T07:59:45.611Z,21.82
2022-08-18T08:00:58.710Z,21.79
2022-08-18T08:01:47.695Z,21.71
2022-08-18T08:02:45.621Z,21.46
2022-08-18T08:03:46.638Z,21.40
2022-08-18T08:04:46.343Z,21.43
2022-08-18T08:05:45.571Z,21.26
2022-08-18T08:07:12.878Z,21.37
2022-08-18T08:07:47.659Z,21.31
2022-08-18T08:08:45.540Z,21.37
2022-08-18T08:09:51.207Z,21.45
2022-08-18T08:10:47.561Z,21.49
2022-08-18T08:11:45.543Z,21.70
2022-08-18T08:12:45.529Z,21.46
2022-08-18T08:13:55.333Z,21.51
2022-08-18T08:14:47.532Z,21.51
2022-08-18T08:15:45.611Z,21.38
2022-08-18T08:16:45.500Z,21.52
2022-08-18T08:17:45.605Z,21.59
2022-08-18T08:18:45.531Z,21.70
2022-08-18T08:20:01.993Z,21.68
2022-08-18T08:20:47.495Z,21.64
2022-08-18T08:21:45.481Z,21.59
2022-08-18T08:22:46.496Z,21.70
2022-08-18T08:23:45.509Z,21.75
2022-08-18T08:24:45.461Z,21.74
2022-08-18T08:25:47.113Z,21.81
2022-08-18T08:26:46.433Z,21.89
2022-08-18T08:27:45.475Z,21.70
2022-08-18T08:28:45.402Z,21.56
2022-08-18T08:29:45.438Z,21.52
2022-08-18T08:30:45.398Z,21.63
2022-08-18T08:31:46.425Z,21.37
2022-08-18T08:32:45.398Z,21.38
2022-08-18T08:33:45.409Z,21.36
2022-08-18T08:34:45.403Z,21.40
2022-08-18T08:35:48.709Z,21.38
2022-08-18T08:36:45.438Z,21.53
2022-08-18T08:37:45.485Z,21.58
2022-08-18T08:38:45.347Z,21.64
2022-08-18T08:39:45.492Z,21.59
2022-08-18T08:40:45.399Z,21.43
2022-08-18T08:41:45.347Z,21.51
2022-08-18T08:42:45.347Z,21.55
2022-08-18T08:43:45.929Z,21.46
2022-08-18T08:44:58.878Z,21.34
2022-08-18T08:45:47.383Z,21.28
2022-08-18T08:46:45.349Z,21.16
2022-08-18T08:47:45.390Z,21.16
2022-08-18T08:48:45.281Z,21.05
2022-08-18T08:49:45.306Z,21.06
2022-08-18T08:50:45.320Z,20.97
2022-08-18T08:51:45.295Z,20.94
2022-08-18T08:52:45.280Z,20.98
2022-08-18T08:53:45.313Z,20.93
2022-08-18T08:54:45.280Z,21.01
2022-08-18T08:55:45.262Z,21.06
2022-08-18T08:56:45.257Z,21.03
2022-08-18T08:57:45.211Z,20.90
2022-08-18T08:58:45.740Z,20.79
2022-08-18T08:59:45.212Z,20.82
2022-08-18T09:00:45.790Z,20.76
2022-08-18T09:01:45.218Z,20.82
2022-08-18T09:02:48.225Z,20.69
2022-08-18T09:03:46.162Z,20.83
2022-08-18T09:05:01.180Z,20.75
2022-08-18T09:05:46.182Z,20.87
2022-08-18T09:06:45.195Z,20.85
2022-08-18T09:07:45.177Z,20.97
2022-08-18T09:08:45.261Z,20.97
2022-08-18T09:09:45.163Z,21.00
2022-08-18T09:10:46.144Z,20.88
2022-08-18T09:11:45.113Z,21.00
2022-08-18T09:12:45.215Z,21.06
2022-08-18T09:13:45.137Z,21.21
2022-08-18T09:14:45.151Z,21.19
2022-08-18T09:15:45.113Z,21.33
2022-08-18T09:16:45.079Z,21.42
2022-08-18T09:17:45.067Z,21.34
2022-08-18T09:18:45.098Z,21.46
2022-08-18T09:19:45.115Z,21.40
2022-08-18T09:20:49.050Z,21.40
2022-08-18T09:21:46.069Z,21.16
2022-08-18T09:22:45.061Z,20.93
2022-08-18T09:23:45.084Z,20.82
2022-08-18T09:24:45.062Z,20.79
2022-08-18T09:25:45.055Z,20.75
2022-08-18T09:26:45.025Z,20.78
2022-08-18T09:28:09.267Z,20.72
2022-08-18T09:28:47.045Z,20.85
2022-08-18T09:29:45.067Z,20.75
2022-08-18T09:30:47.480Z,20.75
2022-08-18T09:31:45.060Z,20.76
2022-08-18T09:32:45.013Z,20.85
2022-08-18T09:33:45.022Z,20.79
2022-08-18T09:34:45.515Z,21.01
2022-08-18T09:35:45.155Z,20.97
2022-08-18T09:36:46.003Z,21.19
2022-08-18T09:37:45.240Z,21.28
2022-08-18T09:38:45.291Z,21.24
2022-08-18T09:39:47.048Z,21.33
2022-08-18T09:41:49.036Z,21.40
2022-08-18T09:42:48.534Z,21.42
2022-08-18T09:43:45.893Z,21.56
2022-08-18T09:44:44.875Z,21.59
2022-08-18T09:45:44.891Z,21.71
2022-08-18T09:46:44.889Z,21.61
2022-08-18T09:47:48.070Z,21.51
2022-08-18T09:48:45.277Z,21.31
2022-08-18T09:49:47.637Z,21.26
2022-08-18T09:50:44.850Z,21.11
2022-08-18T09:51:44.878Z,21.01
2022-08-18T09:52:44.878Z,20.96
2022-08-18T09:53:44.838Z,20.87
2022-08-18T09:54:44.845Z,20.78
2022-08-18T09:55:52.090Z,20.88
2022-08-18T09:56:53.565Z,20.98
2022-08-18T09:57:45.779Z,20.98
2022-08-18T09:58:44.965Z,21.00
2022-08-18T09:59:44.792Z,21.00
2022-08-18T10:00:44.800Z,21.00
2022-08-18T10:01:52.417Z,21.05
2022-08-18T10:02:48.773Z,21.21
2022-08-18T10:03:44.780Z,21.27
2022-08-18T10:04:44.757Z,21.33
2022-08-18T10:05:44.767Z,21.37
2022-08-18T10:06:48.866Z,21.40
2022-08-18T10:07:44.761Z,21.40
2022-08-18T10:08:44.743Z,21.51
2022-08-18T10:11:45.690Z,21.67
2022-08-18T10:12:45.727Z,21.59
2022-08-18T10:13:49.189Z,21.51
2022-08-18T10:14:45.705Z,21.53
2022-08-18T10:15:44.697Z,21.33
2022-08-18T10:17:13.065Z,21.30
2022-08-18T10:17:50.173Z,21.19
2022-08-18T10:18:44.668Z,21.28
2022-08-18T10:19:44.658Z,21.26
2022-08-18T10:20:44.665Z,21.42
2022-08-18T10:21:44.724Z,21.52
2022-08-18T10:22:44.636Z,21.63
2022-08-18T10:23:49.405Z,21.77
2022-08-18T10:24:45.966Z,21.74
2022-08-18T10:25:44.622Z,21.83
2022-08-18T10:26:54.119Z,21.96
2022-08-18T10:27:45.590Z,22.02
2022-08-18T10:28:44.578Z,22.09
2022-08-18T10:29:44.708Z,22.01
2022-08-18T10:30:56.533Z,21.68
2022-08-18T10:31:45.559Z,21.43
2022-08-18T10:32:52.218Z,21.13
2022-08-18T10:33:45.560Z,21.08
2022-08-18T10:34:52.129Z,21.00
2022-08-18T10:35:45.608Z,21.03
2022-08-18T10:36:44.535Z,21.01
2022-08-18T10:37:44.543Z,21.01
2022-08-18T10:39:45.566Z,21.08
2022-08-18T10:40:44.545Z,20.91
2022-08-18T10:41:44.550Z,20.88
2022-08-18T10:42:44.705Z,20.81
2022-08-18T10:43:55.643Z,21.01
2022-08-18T10:44:45.558Z,21.21
2022-08-18T10:45:59.222Z,21.26
2022-08-18T10:46:46.925Z,21.46
2022-08-18T10:47:45.065Z,21.56
2022-08-18T10:48:44.482Z,21.67
2022-08-18T10:49:46.651Z,21.74
2022-08-18T10:50:44.432Z,21.85
2022-08-18T10:51:57.957Z,21.86
2022-08-18T10:52:54.611Z,22.04
2022-08-18T10:53:46.667Z,22.06
2022-08-18T10:54:51.732Z,22.30
2022-08-18T10:56:45.372Z,22.39
2022-08-18T10:57:44.403Z,22.29
2022-08-18T10:58:44.477Z,22.15
2022-08-18T10:59:50.557Z,22.21
2022-08-18T11:00:45.456Z,22.30
2022-08-18T11:01:44.442Z,22.42
2022-08-18T11:02:44.364Z,22.23
2022-08-18T11:03:51.635Z,22.08
2022-08-18T11:04:45.345Z,21.89
2022-08-18T11:05:44.351Z,21.90
2022-08-18T11:06:44.365Z,21.90
2022-08-18T11:07:44.857Z,21.89
2022-08-18T11:08:44.361Z,21.77
2022-08-18T11:09:50.943Z,21.85
2022-08-18T11:11:05.910Z,22.09
2022-08-18T11:11:53.236Z,22.06
2022-08-18T11:12:45.303Z,22.11
2022-08-18T11:13:44.313Z,22.04
2022-08-18T11:14:44.329Z,22.06
2022-08-18T11:15:44.425Z,22.01
2022-08-18T11:16:44.272Z,22.01
2022-08-18T11:17:44.294Z,21.99
2022-08-18T11:18:44.270Z,22.06
2022-08-18T11:19:44.291Z,21.94
2022-08-18T11:20:47.449Z,21.82
2022-08-18T11:21:44.212Z,21.99
2022-08-18T11:22:44.217Z,22.06
2022-08-18T11:23:44.212Z,22.02
2022-08-18T11:24:44.228Z,21.83
2022-08-18T11:25:44.210Z,21.96
2022-08-18T11:26:44.361Z,22.01
2022-08-18T11:27:45.166Z,22.01
2022-08-18T11:28:44.978Z,22.14
2022-08-18T11:29:44.198Z,22.23
2022-08-18T11:30:44.154Z,22.38
2022-08-18T11:31:44.167Z,22.29
2022-08-18T11:32:51.965Z,22.31
2022-08-18T11:33:45.292Z,22.38
2022-08-18T11:34:52.185Z,22.51
2022-08-18T11:35:45.250Z,22.41
2022-08-18T11:36:49.353Z,22.38
2022-08-18T11:37:48.710Z,22.29
2022-08-18T11:38:44.179Z,22.26
2022-08-18T11:39:44.220Z,22.23
2022-08-18T11:41:13.722Z,22.04
2022-08-18T11:41:48.588Z,21.73
2022-08-18T11:42:45.072Z,21.81
2022-08-18T11:43:47.468Z,21.93
2022-08-18T11:44:44.075Z,21.93
2022-08-18T11:45:44.102Z,21.83
2022-08-18T11:47:45.014Z,21.89
2022-08-18T11:48:52.077Z,21.98
2022-08-18T11:49:45.016Z,22.02
2022-08-18T11:50:43.995Z,22.02
2022-08-18T11:51:45.104Z,21.98
2022-08-18T11:52:44.041Z,21.94
2022-08-18T11:53:44.114Z,21.89
2022-08-18T11:54:50.689Z,22.02
2022-08-18T11:55:48.313Z,21.85
2022-08-18T11:56:45.065Z,21.81
2022-08-18T11:57:46.916Z,21.89
2022-08-18T11:58:44.972Z,21.90
2022-08-18T11:59:54.997Z,21.86
2022-08-18T12:00:44.953Z,22.01
2022-08-18T12:01:43.992Z,22.06
2022-08-18T12:02:43.975Z,22.19
2022-08-18T12:03:43.923Z,22.26
2022-08-18T12:04:43.926Z,22.17
2022-08-18T12:05:45.868Z,22.12
2022-08-18T12:06:44.942Z,22.11
2022-08-18T12:07:57.655Z,22.05
2022-08-18T12:08:56.515Z,22.11
2022-08-18T12:10:18.294Z,22.19
2022-08-18T12:10:45.867Z,22.27
2022-08-18T12:11:44.930Z,22.39
2022-08-18T12:12:43.884Z,22.41
2022-08-18T12:13:43.869Z,22.41
2022-08-18T12:14:43.853Z,22.48
2022-08-18T12:15:47.302Z,22.48
2022-08-18T12:16:46.565Z,22.45
2022-08-18T12:17:44.847Z,22.44
2022-08-18T12:18:44.840Z,22.52
2022-08-18T12:19:43.900Z,22.51
2022-08-18T12:20:43.830Z,22.52
2022-08-18T12:21:43.828Z,22.49
2022-08-18T12:22:43.781Z,22.51
2022-08-18T12:23:49.427Z,22.72
2022-08-18T12:24:44.772Z,22.67
2022-08-18T12:25:43.859Z,22.72
2022-08-18T12:26:47.576Z,22.70
2022-08-18T12:27:43.772Z,22.94
2022-08-18T12:28:43.734Z,22.84
2022-08-18T12:29:43.925Z,22.89
2022-08-18T12:30:43.753Z,22.94
2022-08-18T12:31:48.167Z,23.01
2022-08-18T12:32:49.363Z,23.06
2022-08-18T12:34:44.712Z,23.12
2022-08-18T12:35:43.727Z,23.16
2022-08-18T12:36:43.769Z,23.15
2022-08-18T12:37:58.884Z,23.14
2022-08-18T12:38:45.701Z,23.25
2022-08-18T12:39:44.705Z,23.22
2022-08-18T12:40:44.106Z,23.29
2022-08-18T12:41:43.763Z,23.44
2022-08-18T12:42:43.688Z,23.50
2022-08-18T12:43:43.664Z,23.57
2022-08-18T12:44:44.759Z,23.52
2022-08-18T12:45:43.681Z,23.57
2022-08-18T12:46:43.617Z,23.71
2022-08-18T12:47:43.665Z,23.69
2022-08-18T12:48:43.638Z,23.75
2022-08-18T12:49:43.634Z,23.69
2022-08-18T12:50:54.377Z,23.49
2022-08-18T12:51:44.650Z,23.54
2022-08-18T12:52:44.085Z,23.67
2022-08-18T12:53:59.261Z,23.79
2022-08-18T12:55:45.640Z,23.96
2022-08-18T12:56:43.555Z,24.02
2022-08-18T12:58:44.543Z,24.11
2022-08-18T12:59:43.531Z,24.23
2022-08-18T13:00:43.578Z,24.15
2022-08-18T13:01:43.594Z,23.74